createdAt,value
2023-03-26T00:01:58.498Z,59.24
2023-03-26T00:05:01.036Z,59.07
2023-03-26T00:08:03.726Z,58.53
2023-03-26T00:11:08.034Z,58.49
2023-03-26T00:14:14.187Z,58.68
2023-03-26T00:17:17.209Z,58.87
2023-03-26T00:20:20.070Z,59.25
2023-03-26T00:23:22.583Z,59.28
2023-03-26T00:26:25.837Z,58.88
2023-03-26T00:29:28.299Z,59.50
2023-03-26T00:32:31.486Z,59.07
2023-03-26T00:35:37.970Z,59.45
2023-03-26T00:38:41.817Z,58.29
2023-03-26T00:41:44.334Z,59.18
2023-03-26T00:44:47.181Z,58.70
2023-03-26T00:47:49.921Z,58.42
2023-03-26T00:50:52.400Z,58.01
2023-03-26T00:53:55.880Z,57.62
2023-03-26T00:56:58.670Z,57.85
2023-03-26T01:00:14.997Z,57.12
2023-03-26T01:03:27.683Z,57.11
2023-03-26T01:06:35.519Z,57.77
2023-03-26T01:09:45.169Z,57.57
2023-03-26T01:12:48.009Z,57.70
2023-03-26T01:15:51.384Z,58.31
2023-03-26T01:18:54.685Z,58.91
2023-03-26T01:21:58.341Z,58.80
2023-03-26T01:25:00.813Z,58.73
2023-03-26T01:28:08.940Z,58.72
2023-03-26T01:31:29.757Z,58.42
2023-03-26T01:34:47.092Z,57.79
2023-03-26T01:38:23.072Z,58.12
2023-03-26T01:41:33.989Z,58.75
2023-03-26T01:44:46.434Z,58.15
2023-03-26T01:47:49.372Z,58.27
2023-03-26T01:50:56.320Z,57.76
2023-03-26T01:54:02.866Z,57.47
2023-03-26T01:57:21.008Z,58.35
2023-03-26T02:00:33.650Z,57.03
2023-03-26T02:03:44.993Z,57.51
2023-03-26T02:07:06.131Z,57.58
2023-03-26T02:10:29.748Z,57.57
2023-03-26T02:13:32.671Z,57.71
2023-03-26T02:16:35.386Z,57.07
2023-03-26T02:19:42.392Z,57.63
2023-03-26T02:22:48.494Z,57.66
2023-03-26T02:25:53.973Z,58.01
2023-03-26T02:28:57.634Z,57.59
2023-03-26T02:32:02.308Z,58.88
2023-03-26T02:35:06.867Z,59.58
2023-03-26T02:38:10.524Z,59.36
2023-03-26T02:41:13.431Z,59.89
2023-03-26T02:44:29.713Z,60.51
2023-03-26T02:47:35.201Z,60.70
2023-03-26T02:51:04.682Z,61.49
2023-03-26T02:54:25.534Z,62.48
2023-03-26T02:57:38.195Z,61.78
2023-03-26T03:00:40.741Z,61.79
2023-03-26T03:04:04.401Z,62.24
2023-03-26T03:07:17.991Z,62.87
2023-03-26T03:10:22.088Z,63.79
2023-03-26T03:13:38.006Z,64.22
2023-03-26T03:16:41.243Z,64.34
2023-03-26T03:19:45.926Z,64.97
2023-03-26T03:22:49.066Z,65.37
2023-03-26T03:25:52.682Z,66.06
2023-03-26T03:28:57.626Z,66.48
2023-03-26T03:32:00.506Z,66.46
2023-03-26T03:35:13.686Z,67.32
2023-03-26T03:38:19.337Z,67.44
2023-03-26T03:41:24.779Z,67.82
2023-03-26T03:44:27.353Z,67.92
2023-03-26T03:47:30.044Z,68.21
2023-03-26T03:50:34.382Z,68.51
2023-03-26T03:53:56.673Z,69.01
2023-03-26T03:57:18.863Z,67.77
2023-03-26T04:00:38.365Z,67.92
2023-03-26T04:04:00.895Z,68.92
2023-03-26T04:07:17.594Z,69.78
2023-03-26T04:10:38.855Z,69.51
2023-03-26T04:13:47.294Z,69.93
2023-03-26T04:17:02.271Z,70.00
2023-03-26T04:20:08.798Z,70.39
2023-03-26T04:23:14.264Z,70.77
2023-03-26T04:26:21.030Z,71.14
2023-03-26T04:29:49.667Z,71.04
2023-03-26T04:32:58.844Z,71.27
2023-03-26T04:36:04.340Z,71.21
2023-03-26T04:39:13.332Z,70.80
2023-03-26T04:42:37.724Z,70.84
2023-03-26T04:46:03.427Z,71.02
2023-03-26T04:49:10.596Z,71.50
2023-03-26T04:52:15.028Z,71.24
2023-03-26T04:55:45.299Z,69.80
2023-03-26T04:59:00.852Z,68.93
2023-03-26T05:02:06.566Z,68.08
2023-03-26T05:05:18.912Z,67.45
2023-03-26T05:08:21.375Z,66.88
2023-03-26T05:11:24.265Z,65.99
2023-03-26T05:14:26.955Z,65.21
2023-03-26T05:17:31.068Z,64.06
2023-03-26T05:20:35.995Z,63.17
2023-03-26T05:23:41.464Z,62.62
2023-03-26T05:26:55.080Z,61.75
2023-03-26T05:30:03.751Z,60.93
2023-03-26T05:33:12.433Z,60.60
2023-03-26T05:36:28.317Z,60.14
2023-03-26T05:39:46.985Z,59.84
2023-03-26T05:43:10.288Z,59.91
2023-03-26T05:46:23.962Z,59.92
2023-03-26T05:49:26.733Z,59.38
2023-03-26T05:52:29.998Z,58.81
2023-03-26T05:56:04.995Z,59.76
2023-03-26T05:59:42.698Z,60.44
2023-03-26T06:03:16.570Z,59.05
2023-03-26T06:06:44.930Z,58.88
2023-03-26T06:09:47.670Z,58.28
2023-03-26T06:12:50.087Z,57.82
2023-03-26T06:15:53.440Z,56.93
2023-03-26T06:19:16.475Z,56.20
2023-03-26T06:22:41.940Z,55.94
2023-03-26T06:25:56.239Z,54.19
2023-03-26T06:29:21.945Z,53.28
2023-03-26T06:32:24.806Z,52.85
2023-03-26T06:35:36.444Z,51.45
2023-03-26T06:38:39.497Z,49.17
2023-03-26T06:41:43.183Z,48.16
2023-03-26T06:45:05.017Z,48.06
2023-03-26T06:48:10.261Z,47.10
2023-03-26T06:51:26.660Z,46.88
2023-03-26T06:54:49.020Z,46.80
2023-03-26T06:58:12.863Z,45.96
2023-03-26T07:01:41.589Z,46.06
2023-03-26T07:05:02.902Z,47.24
2023-03-26T07:08:25.861Z,47.46
2023-03-26T07:11:47.946Z,46.71
2023-03-26T07:15:27.565Z,46.56
2023-03-26T07:18:48.631Z,46.51
2023-03-26T07:21:56.199Z,45.31
2023-03-26T07:25:19.451Z,45.63
2023-03-26T07:28:41.771Z,44.87
2023-03-26T07:32:14.046Z,44.90
2023-03-26T07:35:56.864Z,43.89
2023-03-26T07:39:38.156Z,43.50
2023-03-26T07:43:41.157Z,42.06
2023-03-26T07:47:08.842Z,41.94
2023-03-26T07:50:36.308Z,41.53
2023-03-26T07:54:00.522Z,40.83
2023-03-26T07:57:36.777Z,41.69
2023-03-26T08:01:22.100Z,41.28
2023-03-26T08:05:01.446Z,40.73
2023-03-26T08:08:48.102Z,41.11
2023-03-26T08:12:30.007Z,41.40
2023-03-26T08:15:39.276Z,41.31
2023-03-26T08:19:00.095Z,40.98
2023-03-26T08:22:12.099Z,41.67
2023-03-26T08:25:27.649Z,42.09
2023-03-26T08:28:43.569Z,41.68
2023-03-26T08:31:49.191Z,41.29
2023-03-26T08:34:52.805Z,41.39
2023-03-26T08:37:55.425Z,41.55
2023-03-26T08:41:04.769Z,41.36
2023-03-26T08:44:51.642Z,41.68
2023-03-26T08:48:29.907Z,42.94
2023-03-26T08:51:41.850Z,42.68
2023-03-26T08:55:22.063Z,41.98
2023-03-26T08:58:53.679Z,41.54
2023-03-26T09:02:19.224Z,40.84
2023-03-26T09:05:54.906Z,41.01
2023-03-26T09:09:21.152Z,40.02
2023-03-26T09:12:40.367Z,39.62
2023-03-26T09:15:51.403Z,39.43
2023-03-26T09:19:31.601Z,39.59
2023-03-26T09:22:56.062Z,39.31
2023-03-26T09:26:01.746Z,39.74
2023-03-26T09:29:33.740Z,39.34
2023-03-26T09:32:51.852Z,40.13
2023-03-26T09:36:36.307Z,40.14
2023-03-26T09:40:11.420Z,40.50
2023-03-26T09:43:43.086Z,40.66
2023-03-26T09:47:13.422Z,40.49
2023-03-26T09:50:15.952Z,40.74
2023-03-26T09:53:24.196Z,40.06
2023-03-26T09:56:54.136Z,39.44
2023-03-26T10:00:16.384Z,39.32
2023-03-26T10:03:49.695Z,40.06
2023-03-26T10:07:17.597Z,39.50
2023-03-26T10:10:42.253Z,38.49
2023-03-26T10:13:54.075Z,37.49
2023-03-26T10:17:28.464Z,35.29
2023-03-26T10:20:41.265Z,32.32
2023-03-26T10:24:09.195Z,30.56
2023-03-26T10:27:31.159Z,29.08
2023-03-26T10:31:06.648Z,30.99
2023-03-26T10:34:46.946Z,30.56
2023-03-26T10:38:05.301Z,26.80
2023-03-26T10:41:28.128Z,26.28
2023-03-26T10:45:12.960Z,24.03
2023-03-26T10:48:43.084Z,23.78
2023-03-26T10:52:44.333Z,23.75
2023-03-26T10:55:54.699Z,26.05
2023-03-26T10:58:57.764Z,30.52
2023-03-26T11:02:30.541Z,34.71
2023-03-26T11:05:58.937Z,35.76
2023-03-26T11:09:04.168Z,33.31
2023-03-26T11:12:28.254Z,28.50
2023-03-26T11:15:39.383Z,32.35
2023-03-26T11:18:52.053Z,34.46
2023-03-26T11:22:00.241Z,34.77
2023-03-26T11:25:29.043Z,25.64
2023-03-26T11:28:31.730Z,27.25
2023-03-26T11:31:58.871Z,24.05
2023-03-26T11:35:09.206Z,19.85
2023-03-26T11:38:23.632Z,18.73
2023-03-26T11:41:28.704Z,24.80
2023-03-26T11:44:55.178Z,29.01
2023-03-26T11:48:22.395Z,30.60
2023-03-26T11:51:41.961Z,29.26
2023-03-26T11:54:48.388Z,30.31
2023-03-26T11:57:55.904Z,30.55
2023-03-26T12:00:59.143Z,31.09
2023-03-26T12:04:13.677Z,30.12
2023-03-26T12:07:30.090Z,29.89
2023-03-26T12:10:38.256Z,31.47
2023-03-26T12:13:50.717Z,32.34
2023-03-26T12:17:14.335Z,31.56
2023-03-26T12:20:26.344Z,23.93
2023-03-26T12:24:02.460Z,21.41
2023-03-26T12:27:28.439Z,20.92
2023-03-26T12:30:42.624Z,24.87
2023-03-26T12:34:06.379Z,30.23
2023-03-26T12:37:36.834Z,29.46
2023-03-26T12:40:40.306Z,25.55
2023-03-26T12:44:54.605Z,28.70
2023-03-26T12:48:00.605Z,28.93
2023-03-26T12:51:31.203Z,28.96
2023-03-26T12:54:58.700Z,23.03
2023-03-26T12:58:16.767Z,26.38
2023-03-26T13:01:43.592Z,28.41
2023-03-26T13:05:05.788Z,30.18
2023-03-26T13:08:15.236Z,30.51
2023-03-26T13:11:41.069Z,30.51
2023-03-26T13:14:49.836Z,27.50
2023-03-26T13:17:58.607Z,26.56
2023-03-26T13:21:07.422Z,23.34
2023-03-26T13:24:23.306Z,23.98
2023-03-26T13:27:41.945Z,20.35
2023-03-26T13:31:39.075Z,18.10
2023-03-26T13:35:14.096Z,17.20
2023-03-26T13:38:58.530Z,17.80
2023-03-26T13:42:08.017Z,21.03
2023-03-26T13:45:28.874Z,18.92
2023-03-26T13:48:42.384Z,19.54
2023-03-26T13:52:01.142Z,23.99
2023-03-26T13:55:22.311Z,22.38
2023-03-26T13:58:42.403Z,25.47
2023-03-26T14:01:57.085Z,27.06
2023-03-26T14:05:12.364Z,26.43
2023-03-26T14:08:41.069Z,25.32
2023-03-26T14:12:07.129Z,24.12
2023-03-26T14:15:49.605Z,26.29
2023-03-26T14:19:33.838Z,19.20
2023-03-26T14:22:51.506Z,17.90
2023-03-26T14:26:28.480Z,22.21
2023-03-26T14:29:56.666Z,20.73
2023-03-26T14:33:28.134Z,22.65
2023-03-26T14:36:43.365Z,21.70
2023-03-26T14:40:27.054Z,23.62
2023-03-26T14:43:51.653Z,24.13
2023-03-26T14:47:09.607Z,20.72
2023-03-26T14:50:46.709Z,22.08
2023-03-26T14:53:57.044Z,23.96
2023-03-26T14:57:36.564Z,25.17
2023-03-26T15:00:44.743Z,26.07
2023-03-26T15:04:05.681Z,27.03
2023-03-26T15:07:45.533Z,27.11
2023-03-26T15:11:13.702Z,27.03
2023-03-26T15:14:35.428Z,27.44
2023-03-26T15:18:13.863Z,27.58
2023-03-26T15:21:40.977Z,27.08
2023-03-26T15:25:02.809Z,27.29
2023-03-26T15:28:33.606Z,26.69
2023-03-26T15:32:03.111Z,27.50
2023-03-26T15:35:25.701Z,27.28
2023-03-26T15:38:38.576Z,26.91
2023-03-26T15:42:14.698Z,27.34
2023-03-26T15:45:36.962Z,27.69
2023-03-26T15:49:02.295Z,27.78
2023-03-26T15:52:20.358Z,28.13
2023-03-26T15:55:36.663Z,28.50
2023-03-26T15:59:16.331Z,29.06
2023-03-26T16:02:54.712Z,29.21
2023-03-26T16:06:20.848Z,29.46
2023-03-26T16:09:32.648Z,29.87
2023-03-26T16:12:45.987Z,30.55
2023-03-26T16:16:11.331Z,30.50
2023-03-26T16:19:20.288Z,30.39
2023-03-26T16:22:32.494Z,31.05
2023-03-26T16:26:00.897Z,31.25
2023-03-26T16:29:19.433Z,31.23
2023-03-26T16:32:35.556Z,31.36
2023-03-26T16:35:48.092Z,32.22
2023-03-26T16:39:15.851Z,32.57
2023-03-26T16:42:31.813Z,33.02
2023-03-26T16:45:57.295Z,33.48
2023-03-26T16:49:25.294Z,33.55
2023-03-26T16:52:50.613Z,33.78
2023-03-26T16:55:59.908Z,34.02
2023-03-26T16:59:09.348Z,34.35
2023-03-26T17:02:26.447Z,34.20
2023-03-26T17:05:44.942Z,34.32
2023-03-26T17:09:01.391Z,33.95
2023-03-26T17:12:30.075Z,34.38
2023-03-26T17:15:48.831Z,34.24
2023-03-26T17:18:54.478Z,34.54
2023-03-26T17:22:04.269Z,34.87
2023-03-26T17:25:29.275Z,34.92
2023-03-26T17:29:17.104Z,35.22
2023-03-26T17:32:21.611Z,35.55
2023-03-26T17:35:36.790Z,35.83
2023-03-26T17:38:40.586Z,36.02
2023-03-26T17:41:55.483Z,36.26
2023-03-26T17:44:59.368Z,36.62
2023-03-26T17:48:25.370Z,37.15
2023-03-26T17:51:28.140Z,37.59
2023-03-26T17:54:49.198Z,37.53
2023-03-26T17:57:57.175Z,37.60
2023-03-26T18:01:07.058Z,37.58
2023-03-26T18:04:21.268Z,37.63
2023-03-26T18:07:57.997Z,37.99
2023-03-26T18:11:23.837Z,38.04
2023-03-26T18:14:29.625Z,37.91
2023-03-26T18:17:40.282Z,37.91
2023-03-26T18:20:47.246Z,37.90
2023-03-26T18:23:50.945Z,38.19
2023-03-26T18:26:58.537Z,38.34
2023-03-26T18:30:13.608Z,38.71
2023-03-26T18:33:20.165Z,38.57
2023-03-26T18:36:25.924Z,38.94
2023-03-26T18:39:29.003Z,38.91
2023-03-26T18:42:32.961Z,38.91
2023-03-26T18:45:40.493Z,38.95
2023-03-26T18:48:44.352Z,38.92
2023-03-26T18:51:56.762Z,38.92
2023-03-26T18:55:03.250Z,38.90
2023-03-26T18:58:31.253Z,38.69
2023-03-26T19:01:36.636Z,38.85
2023-03-26T19:04:45.326Z,39.04
2023-03-26T19:07:50.235Z,38.74
2023-03-26T19:10:54.862Z,38.76
2023-03-26T19:14:07.815Z,39.46
2023-03-26T19:17:12.055Z,39.06
2023-03-26T19:20:46.185Z,39.49
2023-03-26T19:23:49.616Z,39.67
2023-03-26T19:26:53.016Z,39.73
2023-03-26T19:29:56.260Z,39.83
2023-03-26T19:33:13.486Z,40.01
2023-03-26T19:36:29.704Z,40.38
2023-03-26T19:39:38.152Z,40.76
2023-03-26T19:42:44.735Z,41.04
2023-03-26T19:45:59.749Z,41.26
2023-03-26T19:49:04.290Z,41.39
2023-03-26T19:52:17.451Z,41.59
2023-03-26T19:55:27.410Z,41.66
2023-03-26T19:58:31.130Z,41.91
2023-03-26T20:01:34.004Z,41.85
2023-03-26T20:04:36.834Z,41.64
2023-03-26T20:07:41.367Z,41.48
2023-03-26T20:10:44.350Z,41.33
2023-03-26T20:13:47.813Z,41.69
2023-03-26T20:16:50.261Z,41.89
2023-03-26T20:19:54.271Z,42.11
2023-03-26T20:22:56.978Z,41.87
2023-03-26T20:25:59.671Z,42.08
2023-03-26T20:29:04.036Z,42.03
2023-03-26T20:32:19.159Z,42.20
2023-03-26T20:35:36.204Z,42.35
2023-03-26T20:38:40.339Z,42.36
2023-03-26T20:41:50.179Z,42.39
2023-03-26T20:44:53.501Z,42.19
2023-03-26T20:47:56.113Z,42.10
2023-03-26T20:50:58.903Z,42.18
2023-03-26T20:54:02.255Z,42.64
2023-03-26T20:57:05.540Z,42.36
2023-03-26T21:00:22.141Z,41.61
2023-03-26T21:03:24.636Z,41.89
2023-03-26T21:06:27.310Z,41.90
2023-03-26T21:09:34.143Z,41.98
2023-03-26T21:12:45.621Z,42.23
2023-03-26T21:15:49.064Z,42.36
2023-03-26T21:18:51.822Z,42.10
2023-03-26T21:22:19.941Z,42.26
2023-03-26T21:26:01.550Z,41.67
2023-03-26T21:29:04.150Z,42.30
2023-03-26T21:32:07.177Z,43.61
2023-03-26T21:35:10.603Z,44.72
2023-03-26T21:38:13.605Z,47.47
2023-03-26T21:41:36.006Z,48.87
2023-03-26T21:44:40.162Z,49.96
2023-03-26T21:47:43.549Z,50.61
2023-03-26T21:50:47.635Z,51.34
2023-03-26T21:53:50.647Z,51.95
2023-03-26T21:57:00.061Z,52.83
2023-03-26T22:00:15.291Z,53.35
2023-03-26T22:03:31.922Z,53.72
2023-03-26T22:06:43.786Z,53.96
2023-03-26T22:09:46.585Z,54.31
2023-03-26T22:12:49.379Z,54.25
2023-03-26T22:15:51.987Z,54.81
2023-03-26T22:18:54.606Z,54.92
2023-03-26T22:21:58.400Z,55.27
2023-03-26T22:25:01.209Z,55.13
2023-03-26T22:28:04.463Z,56.86
2023-03-26T22:31:08.675Z,58.45
2023-03-26T22:34:11.760Z,59.54
2023-03-26T22:37:14.456Z,60.60
2023-03-26T22:40:17.972Z,61.15
2023-03-26T22:43:20.572Z,61.39
2023-03-26T22:46:23.700Z,62.14
2023-03-26T22:49:27.462Z,63.34
2023-03-26T22:52:30.484Z,63.76
2023-03-26T22:55:33.130Z,64.86
2023-03-26T22:58:35.588Z,64.69
2023-03-26T23:01:38.128Z,65.19
2023-03-26T23:04:42.653Z,65.32
2023-03-26T23:07:46.188Z,66.28
2023-03-26T23:10:48.770Z,66.19
2023-03-26T23:13:51.814Z,66.74
2023-03-26T23:16:55.042Z,66.62
2023-03-26T23:19:57.531Z,66.60
2023-03-26T23:23:01.223Z,67.88
2023-03-26T23:26:04.742Z,69.15
2023-03-26T23:29:07.506Z,69.51
2023-03-26T23:32:23.783Z,69.63
2023-03-26T23:35:27.813Z,70.60
2023-03-26T23:38:44.040Z,70.06
2023-03-26T23:41:47.145Z,70.84
2023-03-26T23:44:49.653Z,70.24
2023-03-26T23:47:52.191Z,70.27
2023-03-26T23:51:03.178Z,70.23
2023-03-26T23:54:08.760Z,70.48
2023-03-26T23:57:11.694Z,71.45
